Aeroporto :
LOGIN :

Iscrizione | Disclaimer

   EN    FR    IT 

 










Sommario :    VFR   VFR Marginale   IFR   IFR Intensivo   IFR Molto Intensivo
Visibilità : 
Base nubi : 
>= 8 km
>= 3000ft
5 / 8 km
1000 / 3000 ft
1500m / 5 km
500 / 1000 ft
800 / 1500m
200 / 500 ft
< 800m
< 200 ft
Simboli :   Temporali  Nebbia  Neve Forte  Precipitazioni Forti  Vento > 20 kt
SIGMETs :   Varie  Temporali  Ghiacco  Turbolenza  Onda orograficha  Ceneri Vulcaniche






- Altitudine del aeroporto : 295 ft
- Codice IATA : BWE


EDVE - Braunschweig

ULTIMO METAR :
  • 211550Z 11006KT 6000 OVC004 06/06 Q1009

METARs OBSOLETI :
  • 211520Z 12005KT 6000 OVC004 06/06 Q1009
  • 211450Z 12005KT 7000 OVC004 06/06 Q1009
  • 211420Z 12004KT 090V160 6000 OVC005 06/06 Q1009
  • 211350Z 11004KT 4500 BR OVC003 06/06 Q1009
  • 211320Z 09005KT 0900 R26/0900V1500U -DZ FG BKN001 OVC004 06/05 Q1009
  • 211250Z 09004KT 050V110 0900 R26/1000D -DZ FG BKN002 OVC004 06/05 Q1010

TAF TAF EDVE
Valido dal 21 a 15 ore il 21 a 21 ore UTC


211400Z 2115/2121 VRB03KT 5000 BR OVC005
BECMG 2115/2118 3000 -RA BKN002
PROB30
TEMPO 2117/2121 0600 FG SCT001



MetMap, La meteo Aeronautica in un colpo d'occhio ! - Copyright ORBIFLY Dicembre 2007 - Disclaimer

ORBIFLY MET'MAP TEAM :

Programmazione e sviluppo : Alexandra Zaïnal
Concezione e sviluppo : Baudouin d'Aumeries
Co-Programmazione e sviluppo : Marc-Olivier Méhu
Supporto tecnico e logistico : Manuel Goepfert
Aiuto per la traduzione : Arnaldo La Scala

Contatto : metmap@orbifly.com




FONTI E CREDITI :

   NOAA